sensor_id;sensor_type;location;lat;lon;timestamp;P1;durP1;ratioP1;P2;durP2;ratioP2
79135;SDS011;68533;51.090;17.216;2023-03-23T00:02:01;28.73;;;15.00;;
79135;SDS011;68533;51.090;17.216;2023-03-23T00:04:27;32.72;;;17.33;;
79135;SDS011;68533;51.090;17.216;2023-03-23T00:06:54;41.35;;;18.45;;
79135;SDS011;68533;51.090;17.216;2023-03-23T00:09:20;31.63;;;15.35;;
79135;SDS011;68533;51.090;17.216;2023-03-23T00:11:50;26.80;;;14.23;;
79135;SDS011;68533;51.090;17.216;2023-03-23T00:14:18;27.83;;;14.77;;
79135;SDS011;68533;51.090;17.216;2023-03-23T00:16:47;30.95;;;14.63;;
79135;SDS011;68533;51.090;17.216;2023-03-23T00:19:15;24.83;;;14.65;;
79135;SDS011;68533;51.090;17.216;2023-03-23T00:21:44;37.25;;;16.27;;
79135;SDS011;68533;51.090;17.216;2023-03-23T00:24:12;39.70;;;18.08;;
79135;SDS011;68533;51.090;17.216;2023-03-23T00:26:43;35.40;;;16.25;;
79135;SDS011;68533;51.090;17.216;2023-03-23T00:29:13;30.02;;;13.75;;
79135;SDS011;68533;51.090;17.216;2023-03-23T00:31:49;26.50;;;14.20;;
79135;SDS011;68533;51.090;17.216;2023-03-23T00:34:23;25.38;;;14.05;;
79135;SDS011;68533;51.090;17.216;2023-03-23T00:36:54;27.55;;;12.90;;
79135;SDS011;68533;51.090;17.216;2023-03-23T00:39:22;25.45;;;12.32;;
79135;SDS011;68533;51.090;17.216;2023-03-23T00:41:52;25.73;;;12.60;;
79135;SDS011;68533;51.090;17.216;2023-03-23T00:44:27;23.90;;;12.95;;
79135;SDS011;68533;51.090;17.216;2023-03-23T00:49:22;24.42;;;12.90;;
79135;SDS011;68533;51.090;17.216;2023-03-23T00:51:56;26.23;;;12.88;;
79135;SDS011;68533;51.090;17.216;2023-03-23T00:54:24;32.42;;;13.63;;
79135;SDS011;68533;51.090;17.216;2023-03-23T00:56:50;28.63;;;12.20;;
79135;SDS011;68533;51.090;17.216;2023-03-23T00:59:18;22.05;;;12.90;;
79135;SDS011;68533;51.090;17.216;2023-03-23T01:01:44;26.02;;;13.35;;
79135;SDS011;68533;51.090;17.216;2023-03-23T01:04:11;23.52;;;12.35;;
79135;SDS011;68533;51.090;17.216;2023-03-23T01:06:38;25.95;;;13.00;;
79135;SDS011;68533;51.090;17.216;2023-03-23T01:09:10;27.50;;;13.27;;
79135;SDS011;68533;51.090;17.216;2023-03-23T01:11:47;22.10;;;11.70;;
79135;SDS011;68533;51.090;17.216;2023-03-23T01:14:17;20.98;;;11.68;;
79135;SDS011;68533;51.090;17.216;2023-03-23T01:16:52;26.13;;;13.75;;
79135;SDS011;68533;51.090;17.216;2023-03-23T01:19:43;26.13;;;14.38;;
79135;SDS011;68533;51.090;17.216;2023-03-23T01:22:13;28.40;;;13.60;;
79135;SDS011;68533;51.090;17.216;2023-03-23T01:25:00;27.38;;;15.07;;
79135;SDS011;68533;51.090;17.216;2023-03-23T01:27:42;30.83;;;15.32;;
79135;SDS011;68533;51.090;17.216;2023-03-23T01:30:23;22.55;;;11.98;;
79135;SDS011;68533;51.090;17.216;2023-03-23T01:33:18;21.17;;;12.32;;
79135;SDS011;68533;51.090;17.216;2023-03-23T01:35:46;21.52;;;12.27;;
79135;SDS011;68533;51.090;17.216;2023-03-23T01:38:22;21.05;;;11.35;;
79135;SDS011;68533;51.090;17.216;2023-03-23T01:41:17;17.95;;;10.25;;
79135;SDS011;68533;51.090;17.216;2023-03-23T01:46:43;20.05;;;10.00;;
79135;SDS011;68533;51.090;17.216;2023-03-23T01:49:25;21.08;;;10.25;;
79135;SDS011;68533;51.090;17.216;2023-03-23T01:52:03;21.48;;;10.30;;
79135;SDS011;68533;51.090;17.216;2023-03-23T01:54:32;22.90;;;11.75;;
79135;SDS011;68533;51.090;17.216;2023-03-23T01:57:02;22.75;;;10.43;;
79135;SDS011;68533;51.090;17.216;2023-03-23T01:59:36;17.67;;;10.45;;
79135;SDS011;68533;51.090;17.216;2023-03-23T02:02:04;21.65;;;10.20;;
79135;SDS011;68533;51.090;17.216;2023-03-23T02:04:30;21.98;;;10.70;;
79135;SDS011;68533;51.090;17.216;2023-03-23T02:06:59;21.00;;;9.80;;
79135;SDS011;68533;51.090;17.216;2023-03-23T02:09:32;24.13;;;10.02;;
79135;SDS011;68533;51.090;17.216;2023-03-23T02:11:58;20.17;;;9.90;;
79135;SDS011;68533;51.090;17.216;2023-03-23T02:14:24;18.40;;;8.93;;
79135;SDS011;68533;51.090;17.216;2023-03-23T02:17:04;19.55;;;9.38;;
79135;SDS011;68533;51.090;17.216;2023-03-23T02:22:47;15.85;;;9.00;;
79135;SDS011;68533;51.090;17.216;2023-03-23T02:31:43;14.30;;;8.48;;
79135;SDS011;68533;51.090;17.216;2023-03-23T02:34:17;13.15;;;6.97;;
79135;SDS011;68533;51.090;17.216;2023-03-23T02:37:08;19.17;;;8.27;;
79135;SDS011;68533;51.090;17.216;2023-03-23T02:39:37;13.55;;;7.60;;
79135;SDS011;68533;51.090;17.216;2023-03-23T02:42:13;15.52;;;8.13;;
79135;SDS011;68533;51.090;17.216;2023-03-23T02:44:44;16.27;;;7.85;;
79135;SDS011;68533;51.090;17.216;2023-03-23T02:47:20;13.02;;;7.75;;
79135;SDS011;68533;51.090;17.216;2023-03-23T02:49:53;15.60;;;7.82;;
79135;SDS011;68533;51.090;17.216;2023-03-23T02:52:22;15.15;;;6.90;;
79135;SDS011;68533;51.090;17.216;2023-03-23T02:54:51;14.85;;;7.03;;
79135;SDS011;68533;51.090;17.216;2023-03-23T02:57:20;13.18;;;7.45;;
79135;SDS011;68533;51.090;17.216;2023-03-23T02:59:48;19.95;;;9.18;;
79135;SDS011;68533;51.090;17.216;2023-03-23T03:02:23;14.98;;;8.20;;
79135;SDS011;68533;51.090;17.216;2023-03-23T03:05:01;14.15;;;7.97;;
79135;SDS011;68533;51.090;17.216;2023-03-23T03:07:51;13.55;;;7.72;;
79135;SDS011;68533;51.090;17.216;2023-03-23T03:16:14;12.15;;;6.30;;
79135;SDS011;68533;51.090;17.216;2023-03-23T03:22:13;12.98;;;6.35;;
79135;SDS011;68533;51.090;17.216;2023-03-23T03:24:39;13.18;;;7.18;;
79135;SDS011;68533;51.090;17.216;2023-03-23T03:27:22;12.57;;;6.95;;
79135;SDS011;68533;51.090;17.216;2023-03-23T03:31:00;12.85;;;7.28;;
79135;SDS011;68533;51.090;17.216;2023-03-23T03:33:30;14.00;;;8.68;;
79135;SDS011;68533;51.090;17.216;2023-03-23T03:35:59;16.25;;;7.93;;
79135;SDS011;68533;51.090;17.216;2023-03-23T03:38:41;13.88;;;8.15;;
79135;SDS011;68533;51.090;17.216;2023-03-23T03:41:08;13.93;;;7.43;;
79135;SDS011;68533;51.090;17.216;2023-03-23T03:43:34;13.68;;;7.82;;
79135;SDS011;68533;51.090;17.216;2023-03-23T03:46:00;12.05;;;7.22;;
79135;SDS011;68533;51.090;17.216;2023-03-23T03:48:27;12.07;;;6.97;;
79135;SDS011;68533;51.090;17.216;2023-03-23T03:50:52;12.40;;;6.75;;
79135;SDS011;68533;51.090;17.216;2023-03-23T03:53:22;13.43;;;7.10;;
79135;SDS011;68533;51.090;17.216;2023-03-23T03:55:49;17.00;;;6.68;;
79135;SDS011;68533;51.090;17.216;2023-03-23T03:58:16;13.70;;;6.90;;
79135;SDS011;68533;51.090;17.216;2023-03-23T04:00:42;13.20;;;8.25;;
79135;SDS011;68533;51.090;17.216;2023-03-23T04:03:13;18.15;;;9.82;;
79135;SDS011;68533;51.090;17.216;2023-03-23T04:05:42;15.63;;;9.90;;
79135;SDS011;68533;51.090;17.216;2023-03-23T04:08:12;17.52;;;11.32;;
79135;SDS011;68533;51.090;17.216;2023-03-23T04:10:39;20.45;;;11.55;;
79135;SDS011;68533;51.090;17.216;2023-03-23T04:13:06;20.15;;;10.88;;
79135;SDS011;68533;51.090;17.216;2023-03-23T04:15:32;16.52;;;9.40;;
79135;SDS011;68533;51.090;17.216;2023-03-23T04:17:58;17.65;;;9.43;;
79135;SDS011;68533;51.090;17.216;2023-03-23T04:20:26;13.57;;;7.72;;
79135;SDS011;68533;51.090;17.216;2023-03-23T04:22:54;11.77;;;7.63;;
79135;SDS011;68533;51.090;17.216;2023-03-23T04:25:20;13.07;;;7.53;;
79135;SDS011;68533;51.090;17.216;2023-03-23T04:27:50;16.23;;;7.32;;
79135;SDS011;68533;51.090;17.216;2023-03-23T04:30:21;10.52;;;6.22;;
79135;SDS011;68533;51.090;17.216;2023-03-23T04:32:53;10.52;;;6.50;;
79135;SDS011;68533;51.090;17.216;2023-03-23T04:35:21;11.20;;;6.15;;
79135;SDS011;68533;51.090;17.216;2023-03-23T04:37:52;12.18;;;6.40;;
79135;SDS011;68533;51.090;17.216;2023-03-23T04:40:19;10.73;;;6.32;;
79135;SDS011;68533;51.090;17.216;2023-03-23T04:42:47;13.85;;;6.72;;
79135;SDS011;68533;51.090;17.216;2023-03-23T04:45:18;14.82;;;7.40;;
79135;SDS011;68533;51.090;17.216;2023-03-23T04:47:49;11.43;;;6.30;;
79135;SDS011;68533;51.090;17.216;2023-03-23T04:50:23;15.88;;;7.38;;
79135;SDS011;68533;51.090;17.216;2023-03-23T04:52:56;18.00;;;6.90;;
79135;SDS011;68533;51.090;17.216;2023-03-23T04:55:24;8.45;;;4.70;;
79135;SDS011;68533;51.090;17.216;2023-03-23T04:57:52;7.82;;;4.65;;
79135;SDS011;68533;51.090;17.216;2023-03-23T05:00:18;6.97;;;4.47;;
79135;SDS011;68533;51.090;17.216;2023-03-23T05:02:49;10.82;;;4.82;;
79135;SDS011;68533;51.090;17.216;2023-03-23T05:05:17;10.05;;;4.72;;
79135;SDS011;68533;51.090;17.216;2023-03-23T05:07:45;9.40;;;4.22;;
79135;SDS011;68533;51.090;17.216;2023-03-23T05:10:15;12.30;;;4.43;;
79135;SDS011;68533;51.090;17.216;2023-03-23T05:12:44;9.77;;;4.32;;
79135;SDS011;68533;51.090;17.216;2023-03-23T05:15:11;7.85;;;4.13;;
79135;SDS011;68533;51.090;17.216;2023-03-23T05:17:39;7.35;;;3.80;;
79135;SDS011;68533;51.090;17.216;2023-03-23T05:20:15;6.22;;;3.70;;
79135;SDS011;68533;51.090;17.216;2023-03-23T05:22:46;8.00;;;5.07;;
79135;SDS011;68533;51.090;17.216;2023-03-23T05:25:17;9.77;;;5.55;;
79135;SDS011;68533;51.090;17.216;2023-03-23T05:27:49;9.50;;;4.75;;
79135;SDS011;68533;51.090;17.216;2023-03-23T05:30:18;7.53;;;4.72;;
79135;SDS011;68533;51.090;17.216;2023-03-23T05:32:49;9.48;;;3.83;;
79135;SDS011;68533;51.090;17.216;2023-03-23T05:35:18;8.23;;;4.18;;
79135;SDS011;68533;51.090;17.216;2023-03-23T05:37:45;8.40;;;4.25;;
79135;SDS011;68533;51.090;17.216;2023-03-23T05:40:14;5.47;;;3.15;;
79135;SDS011;68533;51.090;17.216;2023-03-23T05:42:41;7.28;;;4.20;;
79135;SDS011;68533;51.090;17.216;2023-03-23T05:45:10;6.35;;;3.35;;
79135;SDS011;68533;51.090;17.216;2023-03-23T05:47:39;5.10;;;3.30;;
79135;SDS011;68533;51.090;17.216;2023-03-23T05:50:08;5.38;;;3.70;;
79135;SDS011;68533;51.090;17.216;2023-03-23T05:52:37;7.15;;;3.20;;
79135;SDS011;68533;51.090;17.216;2023-03-23T05:55:04;7.43;;;4.32;;
79135;SDS011;68533;51.090;17.216;2023-03-23T05:57:52;10.95;;;4.53;;
79135;SDS011;68533;51.090;17.216;2023-03-23T06:00:19;9.73;;;3.45;;
79135;SDS011;68533;51.090;17.216;2023-03-23T06:02:53;4.97;;;3.20;;
79135;SDS011;68533;51.090;17.216;2023-03-23T06:05:22;7.57;;;3.83;;
79135;SDS011;68533;51.090;17.216;2023-03-23T06:07:51;6.22;;;3.80;;
79135;SDS011;68533;51.090;17.216;2023-03-23T06:10:18;6.13;;;3.67;;
79135;SDS011;68533;51.090;17.216;2023-03-23T06:12:45;5.60;;;3.50;;
79135;SDS011;68533;51.090;17.216;2023-03-23T06:15:11;7.22;;;3.40;;
79135;SDS011;68533;51.090;17.216;2023-03-23T06:17:38;6.15;;;3.65;;
79135;SDS011;68533;51.090;17.216;2023-03-23T06:20:04;11.07;;;4.35;;
79135;SDS011;68533;51.090;17.216;2023-03-23T06:22:38;6.38;;;4.20;;
79135;SDS011;68533;51.090;17.216;2023-03-23T06:25:05;5.97;;;2.97;;
79135;SDS011;68533;51.090;17.216;2023-03-23T06:27:32;8.90;;;3.83;;
79135;SDS011;68533;51.090;17.216;2023-03-23T06:29:58;10.40;;;4.60;;
79135;SDS011;68533;51.090;17.216;2023-03-23T06:32:26;9.57;;;4.75;;
79135;SDS011;68533;51.090;17.216;2023-03-23T06:35:19;7.20;;;4.22;;
79135;SDS011;68533;51.090;17.216;2023-03-23T06:37:46;9.55;;;4.80;;
79135;SDS011;68533;51.090;17.216;2023-03-23T06:40:12;9.30;;;4.78;;
79135;SDS011;68533;51.090;17.216;2023-03-23T06:43:09;6.25;;;3.65;;
79135;SDS011;68533;51.090;17.216;2023-03-23T06:45:52;7.85;;;3.33;;
79135;SDS011;68533;51.090;17.216;2023-03-23T06:48:19;7.97;;;3.35;;
79135;SDS011;68533;51.090;17.216;2023-03-23T06:50:45;5.03;;;3.10;;
79135;SDS011;68533;51.090;17.216;2023-03-23T06:53:12;4.38;;;2.80;;
79135;SDS011;68533;51.090;17.216;2023-03-23T06:55:38;7.10;;;3.78;;
79135;SDS011;68533;51.090;17.216;2023-03-23T06:58:07;5.85;;;3.08;;
79135;SDS011;68533;51.090;17.216;2023-03-23T07:00:34;6.75;;;3.22;;
79135;SDS011;68533;51.090;17.216;2023-03-23T07:03:01;5.53;;;3.05;;
79135;SDS011;68533;51.090;17.216;2023-03-23T07:05:28;4.97;;;2.63;;
79135;SDS011;68533;51.090;17.216;2023-03-23T07:07:55;3.28;;;2.30;;
79135;SDS011;68533;51.090;17.216;2023-03-23T07:10:23;5.75;;;2.58;;
79135;SDS011;68533;51.090;17.216;2023-03-23T07:12:50;7.20;;;2.55;;
79135;SDS011;68533;51.090;17.216;2023-03-23T07:15:16;4.88;;;2.50;;
79135;SDS011;68533;51.090;17.216;2023-03-23T07:17:42;4.85;;;2.78;;
79135;SDS011;68533;51.090;17.216;2023-03-23T07:20:08;2.70;;;2.15;;
79135;SDS011;68533;51.090;17.216;2023-03-23T07:22:35;4.80;;;3.15;;
79135;SDS011;68533;51.090;17.216;2023-03-23T07:25:02;5.18;;;2.38;;
79135;SDS011;68533;51.090;17.216;2023-03-23T07:29:56;5.50;;;2.78;;
79135;SDS011;68533;51.090;17.216;2023-03-23T07:32:23;5.45;;;3.90;;
79135;SDS011;68533;51.090;17.216;2023-03-23T07:34:52;5.47;;;3.08;;
79135;SDS011;68533;51.090;17.216;2023-03-23T07:37:19;6.80;;;2.72;;
79135;SDS011;68533;51.090;17.216;2023-03-23T07:39:45;3.63;;;2.30;;
79135;SDS011;68533;51.090;17.216;2023-03-23T07:42:13;5.35;;;3.38;;
79135;SDS011;68533;51.090;17.216;2023-03-23T07:44:48;6.78;;;3.33;;
79135;SDS011;68533;51.090;17.216;2023-03-23T07:47:16;6.32;;;3.08;;
79135;SDS011;68533;51.090;17.216;2023-03-23T07:49:43;7.90;;;3.17;;
79135;SDS011;68533;51.090;17.216;2023-03-23T07:52:10;7.55;;;3.85;;
79135;SDS011;68533;51.090;17.216;2023-03-23T07:54:36;5.88;;;3.50;;
79135;SDS011;68533;51.090;17.216;2023-03-23T07:57:12;7.40;;;3.60;;
79135;SDS011;68533;51.090;17.216;2023-03-23T07:59:40;4.50;;;2.60;;
79135;SDS011;68533;51.090;17.216;2023-03-23T08:02:08;4.60;;;3.13;;
79135;SDS011;68533;51.090;17.216;2023-03-23T08:04:35;5.45;;;3.22;;
79135;SDS011;68533;51.090;17.216;2023-03-23T08:07:03;6.60;;;3.38;;
79135;SDS011;68533;51.090;17.216;2023-03-23T08:09:32;6.30;;;3.58;;
79135;SDS011;68533;51.090;17.216;2023-03-23T08:12:02;5.75;;;3.47;;
79135;SDS011;68533;51.090;17.216;2023-03-23T08:14:29;6.20;;;4.10;;
79135;SDS011;68533;51.090;17.216;2023-03-23T08:16:58;6.38;;;3.17;;
79135;SDS011;68533;51.090;17.216;2023-03-23T08:19:23;6.93;;;4.00;;
79135;SDS011;68533;51.090;17.216;2023-03-23T08:21:51;6.68;;;3.92;;
79135;SDS011;68533;51.090;17.216;2023-03-23T08:24:19;8.23;;;4.03;;
79135;SDS011;68533;51.090;17.216;2023-03-23T08:26:46;8.73;;;3.95;;
79135;SDS011;68533;51.090;17.216;2023-03-23T08:29:12;9.60;;;4.22;;
79135;SDS011;68533;51.090;17.216;2023-03-23T08:31:43;5.88;;;3.65;;
79135;SDS011;68533;51.090;17.216;2023-03-23T08:34:10;5.13;;;2.90;;
79135;SDS011;68533;51.090;17.216;2023-03-23T08:36:45;6.78;;;3.55;;
79135;SDS011;68533;51.090;17.216;2023-03-23T08:39:12;5.32;;;3.13;;
79135;SDS011;68533;51.090;17.216;2023-03-23T08:41:40;3.90;;;2.72;;
79135;SDS011;68533;51.090;17.216;2023-03-23T08:44:06;4.88;;;2.92;;
79135;SDS011;68533;51.090;17.216;2023-03-23T08:46:34;7.22;;;3.25;;
79135;SDS011;68533;51.090;17.216;2023-03-23T08:49:00;5.45;;;3.45;;
79135;SDS011;68533;51.090;17.216;2023-03-23T08:51:26;6.00;;;3.10;;
79135;SDS011;68533;51.090;17.216;2023-03-23T08:53:53;7.13;;;3.70;;
79135;SDS011;68533;51.090;17.216;2023-03-23T08:56:20;7.32;;;3.80;;
79135;SDS011;68533;51.090;17.216;2023-03-23T08:58:48;3.30;;;2.15;;
79135;SDS011;68533;51.090;17.216;2023-03-23T09:01:15;5.97;;;3.80;;
79135;SDS011;68533;51.090;17.216;2023-03-23T09:03:41;3.50;;;2.58;;
79135;SDS011;68533;51.090;17.216;2023-03-23T09:06:08;7.25;;;3.08;;
79135;SDS011;68533;51.090;17.216;2023-03-23T09:08:38;4.50;;;2.33;;
79135;SDS011;68533;51.090;17.216;2023-03-23T09:11:06;4.72;;;2.72;;
79135;SDS011;68533;51.090;17.216;2023-03-23T09:13:37;6.90;;;3.75;;
79135;SDS011;68533;51.090;17.216;2023-03-23T09:16:04;3.88;;;2.60;;
79135;SDS011;68533;51.090;17.216;2023-03-23T09:18:31;4.72;;;2.20;;
79135;SDS011;68533;51.090;17.216;2023-03-23T09:20:59;7.28;;;2.38;;
79135;SDS011;68533;51.090;17.216;2023-03-23T09:23:25;2.75;;;2.20;;
79135;SDS011;68533;51.090;17.216;2023-03-23T09:25:56;5.43;;;2.20;;
79135;SDS011;68533;51.090;17.216;2023-03-23T09:28:22;7.82;;;1.88;;
79135;SDS011;68533;51.090;17.216;2023-03-23T09:30:48;5.05;;;2.50;;
79135;SDS011;68533;51.090;17.216;2023-03-23T09:33:15;2.53;;;1.73;;
79135;SDS011;68533;51.090;17.216;2023-03-23T09:35:41;5.53;;;2.28;;
79135;SDS011;68533;51.090;17.216;2023-03-23T09:38:08;2.72;;;1.60;;
79135;SDS011;68533;51.090;17.216;2023-03-23T09:43:34;1.95;;;1.52;;
79135;SDS011;68533;51.090;17.216;2023-03-23T09:49:31;4.45;;;1.77;;
79135;SDS011;68533;51.090;17.216;2023-03-23T09:54:41;3.45;;;1.27;;
79135;SDS011;68533;51.090;17.216;2023-03-23T09:57:15;4.60;;;1.33;;
79135;SDS011;68533;51.090;17.216;2023-03-23T09:59:49;2.58;;;1.25;;
79135;SDS011;68533;51.090;17.216;2023-03-23T10:05:34;1.38;;;1.00;;
79135;SDS011;68533;51.090;17.216;2023-03-23T10:08:36;3.03;;;1.63;;
79135;SDS011;68533;51.090;17.216;2023-03-23T10:11:00;3.83;;;1.60;;
79135;SDS011;68533;51.090;17.216;2023-03-23T10:16:04;3.10;;;1.42;;
79135;SDS011;68533;51.090;17.216;2023-03-23T10:21:39;3.88;;;1.50;;
79135;SDS011;68533;51.090;17.216;2023-03-23T10:24:15;2.50;;;1.40;;
79135;SDS011;68533;51.090;17.216;2023-03-23T10:29:34;4.20;;;1.70;;
79135;SDS011;68533;51.090;17.216;2023-03-23T10:32:09;2.45;;;1.10;;
79135;SDS011;68533;51.090;17.216;2023-03-23T10:40:01;1.58;;;1.13;;
79135;SDS011;68533;51.090;17.216;2023-03-23T10:42:35;1.73;;;1.10;;
79135;SDS011;68533;51.090;17.216;2023-03-23T10:45:12;4.75;;;1.33;;
79135;SDS011;68533;51.090;17.216;2023-03-23T10:48:31;2.28;;;1.27;;
79135;SDS011;68533;51.090;17.216;2023-03-23T10:50:50;3.92;;;1.27;;
79135;SDS011;68533;51.090;17.216;2023-03-23T10:53:25;3.97;;;1.38;;
79135;SDS011;68533;51.090;17.216;2023-03-23T10:56:00;2.58;;;1.23;;
79135;SDS011;68533;51.090;17.216;2023-03-23T11:00:58;1.63;;;1.05;;
79135;SDS011;68533;51.090;17.216;2023-03-23T11:06:07;1.77;;;0.82;;
79135;SDS011;68533;51.090;17.216;2023-03-23T11:08:38;0.93;;;0.70;;
79135;SDS011;68533;51.090;17.216;2023-03-23T11:16:53;1.73;;;0.80;;
79135;SDS011;68533;51.090;17.216;2023-03-23T11:19:24;1.98;;;1.00;;
79135;SDS011;68533;51.090;17.216;2023-03-23T11:22:08;2.10;;;0.90;;
79135;SDS011;68533;51.090;17.216;2023-03-23T11:24:51;3.72;;;0.90;;
79135;SDS011;68533;51.090;17.216;2023-03-23T11:27:19;2.78;;;1.05;;
79135;SDS011;68533;51.090;17.216;2023-03-23T11:29:51;1.33;;;0.82;;
79135;SDS011;68533;51.090;17.216;2023-03-23T11:32:22;2.03;;;0.88;;
79135;SDS011;68533;51.090;17.216;2023-03-23T11:34:54;3.15;;;0.80;;
79135;SDS011;68533;51.090;17.216;2023-03-23T11:37:28;2.33;;;0.93;;
79135;SDS011;68533;51.090;17.216;2023-03-23T11:45:15;1.70;;;0.90;;
79135;SDS011;68533;51.090;17.216;2023-03-23T11:48:12;1.85;;;0.57;;
79135;SDS011;68533;51.090;17.216;2023-03-23T11:59:10;2.05;;;0.90;;
79135;SDS011;68533;51.090;17.216;2023-03-23T12:01:43;2.97;;;1.00;;
79135;SDS011;68533;51.090;17.216;2023-03-23T12:22:37;2.65;;;0.90;;
79135;SDS011;68533;51.090;17.216;2023-03-23T12:28:49;2.08;;;1.00;;
79135;SDS011;68533;51.090;17.216;2023-03-23T12:31:16;3.50;;;0.93;;
79135;SDS011;68533;51.090;17.216;2023-03-23T12:34:04;2.88;;;1.17;;
79135;SDS011;68533;51.090;17.216;2023-03-23T12:42:23;1.85;;;1.13;;
79135;SDS011;68533;51.090;17.216;2023-03-23T12:48:22;2.70;;;0.80;;
79135;SDS011;68533;51.090;17.216;2023-03-23T12:58:59;1.52;;;1.00;;
79135;SDS011;68533;51.090;17.216;2023-03-23T13:01:34;2.55;;;0.90;;
79135;SDS011;68533;51.090;17.216;2023-03-23T13:06:53;2.25;;;1.08;;
79135;SDS011;68533;51.090;17.216;2023-03-23T13:09:27;3.47;;;1.48;;
79135;SDS011;68533;51.090;17.216;2023-03-23T13:11:55;4.53;;;0.93;;
79135;SDS011;68533;51.090;17.216;2023-03-23T13:20:47;2.08;;;1.00;;
79135;SDS011;68533;51.090;17.216;2023-03-23T13:33:25;2.17;;;1.27;;
79135;SDS011;68533;51.090;17.216;2023-03-23T13:35:56;2.67;;;0.93;;
79135;SDS011;68533;51.090;17.216;2023-03-23T13:38:30;2.08;;;1.30;;
79135;SDS011;68533;51.090;17.216;2023-03-23T13:40:57;3.60;;;1.35;;
79135;SDS011;68533;51.090;17.216;2023-03-23T13:43:27;4.10;;;2.05;;
79135;SDS011;68533;51.090;17.216;2023-03-23T14:01:55;2.28;;;1.35;;
79135;SDS011;68533;51.090;17.216;2023-03-23T14:04:41;2.95;;;1.52;;
79135;SDS011;68533;51.090;17.216;2023-03-23T14:07:11;2.83;;;1.23;;
79135;SDS011;68533;51.090;17.216;2023-03-23T14:09:42;2.63;;;1.30;;
79135;SDS011;68533;51.090;17.216;2023-03-23T14:14:54;3.67;;;1.50;;
79135;SDS011;68533;51.090;17.216;2023-03-23T14:17:31;2.40;;;1.38;;
79135;SDS011;68533;51.090;17.216;2023-03-23T14:20:06;9.68;;;2.58;;
79135;SDS011;68533;51.090;17.216;2023-03-23T14:22:36;6.63;;;2.80;;
79135;SDS011;68533;51.090;17.216;2023-03-23T14:27:40;6.07;;;1.67;;
79135;SDS011;68533;51.090;17.216;2023-03-23T14:30:13;3.63;;;1.60;;
79135;SDS011;68533;51.090;17.216;2023-03-23T14:32:47;2.50;;;1.65;;
79135;SDS011;68533;51.090;17.216;2023-03-23T14:37:52;5.13;;;1.80;;
79135;SDS011;68533;51.090;17.216;2023-03-23T14:40:19;4.38;;;2.25;;
79135;SDS011;68533;51.090;17.216;2023-03-23T14:42:49;5.75;;;2.13;;
79135;SDS011;68533;51.090;17.216;2023-03-23T14:45:21;3.78;;;1.70;;
79135;SDS011;68533;51.090;17.216;2023-03-23T14:48:02;4.95;;;2.10;;
79135;SDS011;68533;51.090;17.216;2023-03-23T14:55:48;3.60;;;1.58;;
79135;SDS011;68533;51.090;17.216;2023-03-23T14:58:18;9.32;;;1.90;;
79135;SDS011;68533;51.090;17.216;2023-03-23T15:00:52;3.95;;;1.40;;
79135;SDS011;68533;51.090;17.216;2023-03-23T15:03:30;4.45;;;1.75;;
79135;SDS011;68533;51.090;17.216;2023-03-23T15:06:02;2.78;;;1.75;;
79135;SDS011;68533;51.090;17.216;2023-03-23T15:08:37;3.10;;;1.60;;
79135;SDS011;68533;51.090;17.216;2023-03-23T15:13:49;2.17;;;1.48;;
79135;SDS011;68533;51.090;17.216;2023-03-23T15:16:26;8.02;;;2.13;;
79135;SDS011;68533;51.090;17.216;2023-03-23T15:19:02;7.32;;;2.20;;
79135;SDS011;68533;51.090;17.216;2023-03-23T15:24:17;4.00;;;1.90;;
79135;SDS011;68533;51.090;17.216;2023-03-23T15:26:46;4.30;;;1.65;;
79135;SDS011;68533;51.090;17.216;2023-03-23T15:29:17;5.60;;;2.13;;
79135;SDS011;68533;51.090;17.216;2023-03-23T15:31:48;6.47;;;1.48;;
79135;SDS011;68533;51.090;17.216;2023-03-23T15:34:40;5.65;;;1.88;;
79135;SDS011;68533;51.090;17.216;2023-03-23T15:37:20;14.45;;;3.10;;
79135;SDS011;68533;51.090;17.216;2023-03-23T15:39:48;3.55;;;1.45;;
79135;SDS011;68533;51.090;17.216;2023-03-23T15:42:23;15.25;;;2.30;;
79135;SDS011;68533;51.090;17.216;2023-03-23T15:47:35;3.25;;;1.50;;
79135;SDS011;68533;51.090;17.216;2023-03-23T15:50:04;3.63;;;1.92;;
79135;SDS011;68533;51.090;17.216;2023-03-23T15:52:53;2.92;;;1.77;;
79135;SDS011;68533;51.090;17.216;2023-03-23T15:55:36;16.38;;;2.92;;
79135;SDS011;68533;51.090;17.216;2023-03-23T15:58:12;3.00;;;1.58;;
79135;SDS011;68533;51.090;17.216;2023-03-23T16:00:41;4.03;;;1.55;;
79135;SDS011;68533;51.090;17.216;2023-03-23T16:03:11;5.28;;;2.20;;
79135;SDS011;68533;51.090;17.216;2023-03-23T16:05:43;3.08;;;1.38;;
79135;SDS011;68533;51.090;17.216;2023-03-23T16:08:10;3.90;;;1.95;;
79135;SDS011;68533;51.090;17.216;2023-03-23T16:10:37;2.30;;;1.35;;
79135;SDS011;68533;51.090;17.216;2023-03-23T16:13:03;4.95;;;1.50;;
79135;SDS011;68533;51.090;17.216;2023-03-23T16:15:30;5.75;;;1.77;;
79135;SDS011;68533;51.090;17.216;2023-03-23T16:17:56;7.35;;;1.75;;
79135;SDS011;68533;51.090;17.216;2023-03-23T16:20:23;3.60;;;2.00;;
79135;SDS011;68533;51.090;17.216;2023-03-23T16:22:50;3.15;;;1.50;;
79135;SDS011;68533;51.090;17.216;2023-03-23T16:25:17;5.80;;;1.30;;
79135;SDS011;68533;51.090;17.216;2023-03-23T16:27:46;4.45;;;1.83;;
79135;SDS011;68533;51.090;17.216;2023-03-23T16:32:46;2.30;;;1.38;;
79135;SDS011;68533;51.090;17.216;2023-03-23T16:35:13;4.93;;;1.70;;
79135;SDS011;68533;51.090;17.216;2023-03-23T16:37:50;4.88;;;2.08;;
79135;SDS011;68533;51.090;17.216;2023-03-23T16:40:18;3.70;;;1.65;;
79135;SDS011;68533;51.090;17.216;2023-03-23T16:42:47;3.58;;;1.80;;
79135;SDS011;68533;51.090;17.216;2023-03-23T16:45:16;4.40;;;1.80;;
79135;SDS011;68533;51.090;17.216;2023-03-23T16:47:46;9.52;;;2.15;;
79135;SDS011;68533;51.090;17.216;2023-03-23T16:50:15;3.72;;;2.10;;
79135;SDS011;68533;51.090;17.216;2023-03-23T16:52:50;5.80;;;2.00;;
79135;SDS011;68533;51.090;17.216;2023-03-23T16:55:17;7.70;;;2.72;;
79135;SDS011;68533;51.090;17.216;2023-03-23T16:57:43;12.07;;;2.25;;
79135;SDS011;68533;51.090;17.216;2023-03-23T17:00:11;3.95;;;2.40;;
79135;SDS011;68533;51.090;17.216;2023-03-23T17:02:41;5.55;;;3.28;;
79135;SDS011;68533;51.090;17.216;2023-03-23T17:05:12;6.28;;;3.03;;
79135;SDS011;68533;51.090;17.216;2023-03-23T17:07:46;5.97;;;3.40;;
79135;SDS011;68533;51.090;17.216;2023-03-23T17:10:13;6.90;;;3.35;;
79135;SDS011;68533;51.090;17.216;2023-03-23T17:12:40;7.28;;;2.63;;
79135;SDS011;68533;51.090;17.216;2023-03-23T17:15:07;5.90;;;2.65;;
79135;SDS011;68533;51.090;17.216;2023-03-23T17:17:33;13.90;;;3.97;;
79135;SDS011;68533;51.090;17.216;2023-03-23T17:20:00;10.65;;;3.72;;
79135;SDS011;68533;51.090;17.216;2023-03-23T17:22:26;9.23;;;4.78;;
79135;SDS011;68533;51.090;17.216;2023-03-23T17:24:53;7.80;;;3.65;;
79135;SDS011;68533;51.090;17.216;2023-03-23T17:27:21;12.68;;;4.80;;
79135;SDS011;68533;51.090;17.216;2023-03-23T17:29:48;10.85;;;5.00;;
79135;SDS011;68533;51.090;17.216;2023-03-23T17:32:15;8.10;;;4.05;;
79135;SDS011;68533;51.090;17.216;2023-03-23T17:34:41;8.65;;;3.35;;
79135;SDS011;68533;51.090;17.216;2023-03-23T17:37:07;9.68;;;4.40;;
79135;SDS011;68533;51.090;17.216;2023-03-23T17:39:35;9.30;;;3.90;;
79135;SDS011;68533;51.090;17.216;2023-03-23T17:42:01;8.00;;;3.85;;
79135;SDS011;68533;51.090;17.216;2023-03-23T17:44:29;8.95;;;3.92;;
79135;SDS011;68533;51.090;17.216;2023-03-23T17:46:55;8.82;;;3.85;;